createdAt,value
2024-02-17T04:35:25.320Z,95794.00
2024-02-17T04:36:25.308Z,95794.00
2024-02-17T04:37:25.197Z,95795.00
2024-02-17T04:38:25.206Z,95796.00
2024-02-17T04:39:25.224Z,95797.00
2024-02-17T04:40:25.225Z,95798.00
2024-02-17T04:41:25.208Z,95801.00
2024-02-17T04:42:25.227Z,95800.00
2024-02-17T04:43:25.204Z,95801.00
2024-02-17T04:44:25.220Z,95803.00
2024-02-17T04:45:25.269Z,95803.00
2024-02-17T04:46:25.236Z,95805.00
2024-02-17T04:47:25.211Z,95806.00
2024-02-17T04:48:25.337Z,95807.00
2024-02-17T04:49:25.262Z,95809.00
2024-02-17T04:50:25.199Z,95811.00
2024-02-17T04:51:25.299Z,95810.00
2024-02-17T04:52:25.197Z,95811.00
2024-02-17T04:53:25.309Z,95811.00
2024-02-17T04:54:25.269Z,95812.00
2024-02-17T04:55:25.232Z,95815.00
2024-02-17T04:56:25.256Z,95815.00
2024-02-17T04:57:25.252Z,95817.00
2024-02-17T04:58:25.262Z,95818.00
2024-02-17T04:59:25.218Z,95820.00
2024-02-17T05:00:25.299Z,95822.00
2024-02-17T05:01:25.353Z,95821.00
2024-02-17T05:02:25.242Z,95821.00
2024-02-17T05:03:25.289Z,95823.00
2024-02-17T05:04:25.358Z,95822.00
2024-02-17T05:05:25.309Z,95823.00
2024-02-17T05:06:25.319Z,95825.00
2024-02-17T05:07:25.270Z,95826.00
2024-02-17T05:08:25.256Z,95824.00
2024-02-17T05:09:25.278Z,95828.00
2024-02-17T05:10:25.271Z,95828.00
2024-02-17T05:11:25.238Z,95832.00
2024-02-17T05:12:25.306Z,95831.00
2024-02-17T05:13:25.370Z,95833.00
2024-02-17T05:14:25.263Z,95836.00
2024-02-17T05:15:25.291Z,95834.00
2024-02-17T05:16:25.250Z,95835.00
2024-02-17T05:17:25.526Z,95837.00
2024-02-17T05:18:25.446Z,95839.00
2024-02-17T05:19:25.416Z,95838.00
2024-02-17T05:20:25.422Z,95838.00
2024-02-17T05:21:25.481Z,95841.00
2024-02-17T05:22:25.486Z,95840.00
2024-02-17T05:23:25.570Z,95843.00
2024-02-17T05:24:25.647Z,95845.00
2024-02-17T05:25:25.594Z,95845.00
2024-02-17T05:26:25.657Z,95847.00
2024-02-17T05:27:25.702Z,95846.00
2024-02-17T05:28:25.753Z,95847.00
2024-02-17T05:29:25.761Z,95849.00
2024-02-17T05:30:25.859Z,95852.00
2024-02-17T05:31:25.882Z,95855.00
2024-02-17T05:32:25.972Z,95857.00
2024-02-17T05:33:26.203Z,95861.00
2024-02-17T05:34:26.048Z,95863.00
2024-02-17T05:35:26.059Z,95863.00
2024-02-17T05:36:26.091Z,95865.00
2024-02-17T05:37:26.128Z,95866.00
2024-02-17T05:38:26.145Z,95865.00
2024-02-17T05:39:26.243Z,95867.00
2024-02-17T05:40:26.278Z,95868.00
2024-02-17T05:41:26.320Z,95871.00
2024-02-17T05:42:26.347Z,95870.00
2024-02-17T05:43:26.404Z,95869.00
2024-02-17T05:44:26.449Z,95870.00
2024-02-17T05:45:26.551Z,95869.00
2024-02-17T05:46:26.523Z,95872.00
2024-02-17T05:47:26.630Z,95874.00
2024-02-17T05:48:26.861Z,95876.00
2024-02-17T05:49:26.889Z,95876.00
2024-02-17T05:50:26.720Z,95878.00
2024-02-17T05:51:26.837Z,95879.00
2024-02-17T05:52:26.861Z,95882.00
2024-02-17T05:53:26.902Z,95881.00
2024-02-17T05:54:27.037Z,95882.00
2024-02-17T05:55:26.977Z,95884.00
2024-02-17T05:56:27.036Z,95887.00
2024-02-17T05:57:27.125Z,95888.00
2024-02-17T05:58:27.127Z,95890.00
2024-02-17T05:59:27.171Z,95894.00
2024-02-17T06:00:27.260Z,95893.00
2024-02-17T06:01:27.327Z,95894.00
2024-02-17T06:02:27.355Z,95895.00
2024-02-17T06:03:27.406Z,95897.00
2024-02-17T06:04:27.438Z,95899.00
2024-02-17T06:05:27.445Z,95899.00
2024-02-17T06:06:27.628Z,95902.00
2024-02-17T06:07:27.678Z,95906.00
2024-02-17T06:08:27.911Z,95909.00
2024-02-17T06:09:27.705Z,95910.00
2024-02-17T06:10:27.778Z,95910.00
2024-02-17T06:11:27.819Z,95911.00
2024-02-17T06:12:27.867Z,95910.00
2024-02-17T06:13:27.865Z,95914.00
2024-02-17T06:14:27.931Z,95914.00
2024-02-17T06:15:27.988Z,95917.00
2024-02-17T06:16:28.016Z,95916.00
2024-02-17T06:17:28.153Z,95921.00
2024-02-17T06:18:28.298Z,95922.00
2024-02-17T06:19:28.612Z,95923.00
2024-02-17T06:20:28.261Z,95926.00
2024-02-17T06:21:28.333Z,95923.00
2024-02-17T06:22:28.366Z,95924.00
2024-02-17T06:23:28.404Z,95925.00
2024-02-17T06:24:28.484Z,95930.00
2024-02-17T06:25:28.510Z,95931.00
2024-02-17T06:26:28.625Z,95930.00
2024-02-17T06:27:28.609Z,95937.00
2024-02-17T06:28:28.656Z,95934.00
2024-02-17T06:29:28.704Z,95937.00
2024-02-17T06:30:28.765Z,95936.00
2024-02-17T06:31:28.833Z,95938.00
2024-02-17T06:32:28.871Z,95941.00
2024-02-17T06:33:29.097Z,95940.00
2024-02-17T06:34:29.074Z,95941.00
2024-02-17T06:35:29.012Z,95940.00
2024-02-17T06:36:29.098Z,95943.00
2024-02-17T06:37:29.106Z,95947.00
2024-02-17T06:38:29.169Z,95946.00
2024-02-17T06:39:29.240Z,95949.00
2024-02-17T06:40:29.249Z,95949.00
2024-02-17T06:41:29.313Z,95953.00
2024-02-17T06:42:29.405Z,95952.00
2024-02-17T06:43:29.441Z,95955.00
2024-02-17T06:44:29.488Z,95955.00
2024-02-17T06:45:29.559Z,95958.00
2024-02-17T06:46:29.598Z,95961.00
2024-02-17T06:47:29.677Z,95962.00
2024-02-17T06:48:29.742Z,95964.00
2024-02-17T06:49:29.838Z,95968.00
2024-02-17T06:50:29.848Z,95966.00
2024-02-17T06:51:29.961Z,95966.00
2024-02-17T06:52:29.939Z,95970.00
2024-02-17T06:53:30.012Z,95972.00
2024-02-17T06:54:30.080Z,95972.00
2024-02-17T06:55:30.056Z,95974.00
2024-02-17T06:56:30.100Z,95977.00
2024-02-17T06:57:30.215Z,95977.00
2024-02-17T06:58:30.243Z,95978.00
2024-02-17T06:59:30.282Z,95979.00
2024-02-17T07:00:30.439Z,95981.00
2024-02-17T07:01:30.409Z,95982.00
2024-02-17T07:02:31.124Z,95983.00
2024-02-17T07:03:30.545Z,95985.00
2024-02-17T07:04:30.631Z,95985.00
2024-02-17T07:05:30.655Z,95987.00
2024-02-17T07:06:30.862Z,95988.00
2024-02-17T07:07:30.739Z,95990.00
2024-02-17T07:08:30.808Z,95991.00
2024-02-17T07:09:30.957Z,95992.00
2024-02-17T07:10:31.364Z,95992.00
2024-02-17T07:11:31.017Z,95992.00
2024-02-17T07:12:31.052Z,95991.00
2024-02-17T07:13:31.114Z,95995.00
2024-02-17T07:14:31.115Z,95993.00
2024-02-17T07:15:31.186Z,95996.00
2024-02-17T07:16:31.232Z,95998.00
2024-02-17T07:17:31.364Z,95997.00
2024-02-17T07:18:31.478Z,95998.00
2024-02-17T07:19:31.533Z,95998.00
2024-02-17T07:20:31.462Z,96000.00
2024-02-17T07:21:31.594Z,96003.00
2024-02-17T07:22:31.593Z,96002.00
2024-02-17T07:23:31.640Z,96005.00
2024-02-17T07:24:31.734Z,96008.00
2024-02-17T07:25:31.739Z,96010.00
2024-02-17T07:26:31.794Z,96012.00
2024-02-17T07:27:31.905Z,96012.00
2024-02-17T07:28:33.592Z,96012.00
2024-02-17T07:29:31.977Z,96013.00
2024-02-17T07:30:32.039Z,96011.00
2024-02-17T07:31:32.018Z,96014.00
2024-02-17T07:32:32.170Z,96015.00
2024-02-17T07:33:32.263Z,96016.00
2024-02-17T07:34:32.232Z,96018.00
2024-02-17T07:35:32.255Z,96019.00
2024-02-17T07:36:32.319Z,96020.00
2024-02-17T07:37:32.339Z,96024.00
2024-02-17T07:38:32.438Z,96025.00
2024-02-17T07:39:32.475Z,96026.00
2024-02-17T07:40:32.524Z,96029.00
2024-02-17T07:41:32.571Z,96033.00
2024-02-17T07:42:32.661Z,96033.00
2024-02-17T07:43:32.684Z,96033.00
2024-02-17T07:44:32.740Z,96033.00
2024-02-17T07:45:32.851Z,96033.00
2024-02-17T07:46:32.824Z,96035.00
2024-02-17T07:47:32.893Z,96034.00
2024-02-17T07:48:33.042Z,96036.00
2024-02-17T07:49:33.267Z,96040.00
2024-02-17T07:50:33.123Z,96041.00
2024-02-17T07:51:33.174Z,96040.00
2024-02-17T07:52:33.152Z,96041.00
2024-02-17T07:53:33.191Z,96043.00
2024-02-17T07:54:33.275Z,96045.00
2024-02-17T07:55:33.282Z,96044.00
2024-02-17T07:56:33.341Z,96046.00
2024-02-17T07:57:33.397Z,96046.00
2024-02-17T07:58:33.434Z,96048.00
2024-02-17T07:59:33.463Z,96049.00
2024-02-17T08:00:33.637Z,96052.00
2024-02-17T08:01:33.610Z,96051.00
2024-02-17T08:02:33.634Z,96053.00
2024-02-17T08:03:33.725Z,96051.00
2024-02-17T08:04:33.789Z,96054.00
2024-02-17T08:05:33.840Z,96057.00
2024-02-17T08:06:33.977Z,96057.00
2024-02-17T08:07:33.925Z,96058.00
2024-02-17T08:08:33.981Z,96060.00
2024-02-17T08:09:33.982Z,96061.00
2024-02-17T08:10:34.057Z,96061.00
2024-02-17T08:11:34.110Z,96060.00
2024-02-17T08:12:34.230Z,96060.00
2024-02-17T08:13:34.199Z,96059.00
2024-02-17T08:14:34.235Z,96060.00
2024-02-17T08:15:34.290Z,96060.00
2024-02-17T08:16:34.298Z,96060.00
2024-02-17T08:17:34.358Z,96059.00
2024-02-17T08:18:34.564Z,96061.00
2024-02-17T08:19:34.502Z,96062.00
2024-02-17T08:20:34.499Z,96061.00
2024-02-17T08:21:34.552Z,96061.00
2024-02-17T08:22:34.812Z,96059.00
2024-02-17T08:23:34.657Z,96060.00
2024-02-17T08:24:34.737Z,96062.00
2024-02-17T08:25:34.732Z,96063.00
2024-02-17T08:26:34.782Z,96065.00
2024-02-17T08:27:34.856Z,96064.00
2024-02-17T08:28:34.887Z,96066.00
2024-02-17T08:29:34.914Z,96066.00
2024-02-17T08:30:34.958Z,96066.00
2024-02-17T08:31:34.986Z,96067.00
2024-02-17T08:32:35.167Z,96066.00
2024-02-17T08:33:35.238Z,96067.00
2024-02-17T08:34:35.264Z,96066.00
2024-02-17T08:35:35.191Z,96067.00
2024-02-17T08:36:35.256Z,96067.00
2024-02-17T08:37:35.257Z,96066.00
2024-02-17T08:38:35.310Z,96067.00
2024-02-17T08:39:35.389Z,96071.00
2024-02-17T08:40:35.393Z,96071.00
2024-02-17T08:41:35.422Z,96071.00
2024-02-17T08:42:35.454Z,96074.00
2024-02-17T08:43:35.493Z,96073.00
2024-02-17T08:44:35.518Z,96076.00
2024-02-17T08:45:35.586Z,96076.00
2024-02-17T08:46:35.639Z,96076.00
2024-02-17T08:47:35.680Z,96078.00
2024-02-17T08:48:35.895Z,96077.00
2024-02-17T08:49:35.838Z,96077.00
2024-02-17T08:50:35.759Z,96079.00
2024-02-17T08:51:35.820Z,96079.00
2024-02-17T08:52:35.842Z,96080.00
2024-02-17T08:53:35.878Z,96082.00
2024-02-17T08:54:35.957Z,96080.00
2024-02-17T08:55:35.995Z,96083.00
2024-02-17T08:56:35.967Z,96082.00
2024-02-17T08:57:36.095Z,96083.00
2024-02-17T08:58:36.091Z,96087.00
2024-02-17T08:59:36.102Z,96088.00
2024-02-17T09:00:36.252Z,96090.00
2024-02-17T09:01:36.223Z,96093.00
2024-02-17T09:02:37.130Z,96092.00
2024-02-17T09:03:36.454Z,96090.00
2024-02-17T09:04:36.349Z,96091.00
2024-02-17T09:05:36.321Z,96093.00
2024-02-17T09:06:36.423Z,96093.00
2024-02-17T09:07:36.488Z,96095.00
2024-02-17T09:08:36.428Z,96097.00
2024-02-17T09:09:36.499Z,96099.00
2024-02-17T09:10:36.497Z,96101.00
2024-02-17T09:11:36.540Z,96100.00
2024-02-17T09:12:36.571Z,96102.00
2024-02-17T09:13:36.614Z,96102.00
2024-02-17T09:14:36.595Z,96103.00
2024-02-17T09:15:36.781Z,96101.00
2024-02-17T09:16:36.736Z,96101.00
2024-02-17T09:17:36.762Z,96101.00
2024-02-17T09:18:36.983Z,96099.00
2024-02-17T09:19:36.929Z,96098.00
2024-02-17T09:20:36.840Z,96099.00
2024-02-17T09:21:36.885Z,96097.00
2024-02-17T09:22:36.903Z,96101.00
2024-02-17T09:23:36.939Z,96101.00
2024-02-17T09:24:38.050Z,96106.00
2024-02-17T09:25:37.007Z,96107.00
2024-02-17T09:26:37.035Z,96109.00
2024-02-17T09:27:37.090Z,96110.00
2024-02-17T09:28:37.127Z,96112.00
2024-02-17T09:29:37.121Z,96113.00
2024-02-17T09:30:37.179Z,96114.00
2024-02-17T09:31:37.204Z,96113.00
2024-02-17T09:32:37.299Z,96112.00
2024-02-17T09:33:37.362Z,96115.00
2024-02-17T09:34:37.568Z,96114.00
2024-02-17T09:35:37.331Z,96114.00
2024-02-17T09:36:37.399Z,96116.00
2024-02-17T09:37:37.366Z,96116.00
2024-02-17T09:38:37.454Z,96116.00
2024-02-17T09:39:37.474Z,96114.00
2024-02-17T09:40:37.455Z,96118.00
2024-02-17T09:41:37.483Z,96119.00
2024-02-17T09:42:37.629Z,96121.00
2024-02-17T09:43:37.584Z,96123.00
2024-02-17T09:44:37.599Z,96122.00
2024-02-17T09:45:37.676Z,96124.00
2024-02-17T09:46:37.688Z,96126.00
2024-02-17T09:47:37.743Z,96129.00
2024-02-17T09:48:37.903Z,96128.00
2024-02-17T09:49:37.786Z,96128.00
2024-02-17T09:50:37.769Z,96128.00
2024-02-17T09:51:37.897Z,96132.00
2024-02-17T09:52:37.818Z,96131.00
2024-02-17T09:53:37.863Z,96129.00
2024-02-17T09:54:37.950Z,96132.00
2024-02-17T09:55:37.977Z,96132.00
2024-02-17T09:56:37.930Z,96133.00
2024-02-17T09:57:46.767Z,96133.00
2024-02-17T09:58:39.017Z,96135.00
2024-02-17T09:59:37.979Z,96135.00
2024-02-17T10:00:38.084Z,96136.00
2024-02-17T10:01:37.989Z,96136.00
2024-02-17T10:02:38.006Z,96139.00
2024-02-17T10:03:38.039Z,96137.00
2024-02-17T10:04:38.104Z,96140.00
2024-02-17T10:05:37.972Z,96142.00
2024-02-17T10:06:38.131Z,96142.00
2024-02-17T10:07:38.002Z,96145.00
2024-02-17T10:08:38.003Z,96146.00
2024-02-17T10:09:37.982Z,96148.00
2024-02-17T10:10:37.962Z,96149.00
2024-02-17T10:11:38.106Z,96150.00
2024-02-17T10:12:38.087Z,96147.00
2024-02-17T10:13:38.026Z,96150.00
2024-02-17T10:14:37.983Z,96149.00
2024-02-17T10:15:38.072Z,96149.00
2024-02-17T10:16:38.041Z,96151.00
2024-02-17T10:17:38.145Z,96150.00
2024-02-17T10:18:38.171Z,96153.00
2024-02-17T10:19:38.182Z,96152.00
2024-02-17T10:20:38.136Z,96153.00
2024-02-17T10:21:38.246Z,96156.00
2024-02-17T10:22:38.237Z,96158.00
2024-02-17T10:23:38.282Z,96158.00
2024-02-17T10:24:38.312Z,96160.00
2024-02-17T10:25:38.318Z,96159.00
2024-02-17T10:26:38.320Z,96161.00
2024-02-17T10:27:38.406Z,96161.00
2024-02-17T10:28:38.402Z,96161.00
2024-02-17T10:29:38.398Z,96160.00
2024-02-17T10:30:38.505Z,96161.00
2024-02-17T10:31:38.449Z,96160.00
2024-02-17T10:32:38.722Z,96157.00
2024-02-17T10:33:38.652Z,96159.00
2024-02-17T10:34:38.615Z,96160.00
2024-02-17T10:35:38.564Z,96160.00
2024-02-17T10:36:38.613Z,96160.00
2024-02-17T10:37:38.615Z,96160.00
2024-02-17T10:38:38.658Z,96161.00
2024-02-17T10:39:38.717Z,96162.00
2024-02-17T10:40:38.672Z,96164.00
2024-02-17T10:41:38.723Z,96163.00
2024-02-17T10:42:38.755Z,96164.00
2024-02-17T10:43:38.818Z,96162.00
2024-02-17T10:44:38.812Z,96163.00
2024-02-17T10:45:38.908Z,96163.00
2024-02-17T10:46:38.958Z,96162.00
2024-02-17T10:47:39.703Z,96162.00
2024-02-17T10:48:38.982Z,96162.00
2024-02-17T10:49:39.065Z,96161.00
2024-02-17T10:50:38.941Z,96159.00
2024-02-17T10:51:38.997Z,96159.00
2024-02-17T10:52:38.993Z,96159.00
2024-02-17T10:53:39.023Z,96160.00
2024-02-17T10:54:39.022Z,96158.00
2024-02-17T10:55:39.026Z,96160.00
2024-02-17T10:56:39.059Z,96161.00
2024-02-17T10:57:39.110Z,96159.00
2024-02-17T10:58:39.103Z,96157.00
2024-02-17T10:59:39.129Z,96159.00
2024-02-17T11:00:39.209Z,96157.00
2024-02-17T11:01:39.219Z,96156.00
2024-02-17T11:02:39.176Z,96155.00
2024-02-17T11:03:39.334Z,96154.00
2024-02-17T11:04:39.240Z,96156.00
2024-02-17T11:05:39.289Z,96152.00
2024-02-17T11:06:39.395Z,96154.00
2024-02-17T11:07:39.275Z,96154.00
2024-02-17T11:08:39.318Z,96155.00
2024-02-17T11:09:39.371Z,96153.00
2024-02-17T11:10:39.347Z,96156.00
2024-02-17T11:11:39.468Z,96155.00
2024-02-17T11:12:39.443Z,96154.00
2024-02-17T11:13:39.427Z,96155.00
2024-02-17T11:14:39.472Z,96154.00
2024-02-17T11:15:39.486Z,96151.00
2024-02-17T11:16:39.459Z,96155.00
2024-02-17T11:17:39.549Z,96155.00
2024-02-17T11:18:39.625Z,96154.00
2024-02-17T11:19:43.355Z,96156.00
2024-02-17T11:20:39.603Z,96156.00
2024-02-17T11:21:39.576Z,96155.00
2024-02-17T11:22:39.526Z,96154.00
2024-02-17T11:23:39.539Z,96156.00
2024-02-17T11:24:39.669Z,96157.00
2024-02-17T11:25:39.553Z,96155.00
2024-02-17T11:26:44.356Z,96154.00
2024-02-17T11:27:40.557Z,96155.00
2024-02-17T11:28:39.588Z,96155.00
2024-02-17T11:29:39.560Z,96154.00
2024-02-17T11:30:39.574Z,96157.00
2024-02-17T11:31:39.552Z,96154.00
2024-02-17T11:32:39.540Z,96156.00
2024-02-17T11:33:39.842Z,96155.00
2024-02-17T11:34:39.689Z,96155.00
2024-02-17T11:35:39.710Z,96156.00
2024-02-17T11:36:39.652Z,96156.00
2024-02-17T11:37:39.613Z,96157.00
2024-02-17T11:38:39.543Z,96158.00
2024-02-17T11:39:39.586Z,96154.00
2024-02-17T11:40:39.562Z,96155.00
2024-02-17T11:41:39.587Z,96152.00
2024-02-17T11:42:39.629Z,96151.00
2024-02-17T11:43:39.580Z,96152.00
2024-02-17T11:44:39.564Z,96149.00
2024-02-17T11:45:39.626Z,96147.00
2024-02-17T11:46:39.560Z,96147.00
2024-02-17T11:47:39.581Z,96147.00
2024-02-17T11:48:39.655Z,96144.00
2024-02-17T11:49:39.816Z,96144.00
2024-02-17T11:50:39.570Z,96146.00
2024-02-17T11:51:39.641Z,96145.00
2024-02-17T11:52:39.555Z,96144.00
2024-02-17T11:53:39.613Z,96145.00
2024-02-17T11:54:39.676Z,96143.00
2024-02-17T11:55:39.573Z,96142.00
2024-02-17T11:56:39.596Z,96142.00
2024-02-17T11:57:39.920Z,96142.00
2024-02-17T11:58:39.578Z,96141.00
2024-02-17T11:59:39.597Z,96140.00
2024-02-17T12:00:39.687Z,96140.00
2024-02-17T12:01:39.672Z,96139.00
2024-02-17T12:02:39.600Z,96139.00
2024-02-17T12:03:39.698Z,96138.00
2024-02-17T12:04:39.698Z,96134.00
2024-02-17T12:05:39.592Z,96134.00
2024-02-17T12:06:39.686Z,96132.00
2024-02-17T12:07:39.634Z,96131.00
2024-02-17T12:08:39.658Z,96129.00
2024-02-17T12:09:39.641Z,96128.00
2024-02-17T12:10:39.653Z,96131.00
2024-02-17T12:11:39.668Z,96130.00
2024-02-17T12:12:39.674Z,96130.00
2024-02-17T12:13:39.650Z,96131.00
2024-02-17T12:14:39.701Z,96132.00
2024-02-17T12:15:39.721Z,96131.00
2024-02-17T12:16:39.636Z,96132.00
2024-02-17T12:17:39.725Z,96129.00
2024-02-17T12:18:39.943Z,96131.00
2024-02-17T12:19:39.761Z,96129.00
2024-02-17T12:20:39.687Z,96131.00
2024-02-17T12:21:39.730Z,96130.00
2024-02-17T12:22:39.689Z,96130.00
2024-02-17T12:23:39.674Z,96130.00
2024-02-17T12:24:39.732Z,96130.00
2024-02-17T12:25:39.682Z,96128.00
2024-02-17T12:26:46.556Z,96130.00
2024-02-17T12:27:40.753Z,96131.00
2024-02-17T12:28:39.701Z,96131.00
2024-02-17T12:29:39.674Z,96131.00
2024-02-17T12:30:39.759Z,96128.00
2024-02-17T12:31:39.698Z,96129.00
2024-02-17T12:32:40.813Z,96128.00
2024-02-17T12:33:39.813Z,96128.00
2024-02-17T12:34:39.828Z,96130.00
2024-02-17T12:35:39.730Z,96129.00
2024-02-17T12:36:39.721Z,96128.00
2024-02-17T12:37:39.694Z,96131.00
2024-02-17T12:38:39.689Z,96130.00
2024-02-17T12:39:39.781Z,96132.00
2024-02-17T12:40:39.709Z,96133.00
2024-02-17T12:41:39.718Z,96134.00
2024-02-17T12:42:39.757Z,96136.00
2024-02-17T12:43:45.210Z,96139.00
2024-02-17T12:44:40.715Z,96138.00
2024-02-17T12:45:39.716Z,96137.00
2024-02-17T12:46:39.700Z,96137.00
2024-02-17T12:47:40.112Z,96138.00
2024-02-17T12:48:40.069Z,96140.00
2024-02-17T12:49:39.751Z,96140.00
2024-02-17T12:50:39.727Z,96136.00
2024-02-17T12:51:39.777Z,96138.00
2024-02-17T12:52:39.741Z,96138.00
2024-02-17T12:53:39.745Z,96142.00
2024-02-17T12:54:39.776Z,96140.00
2024-02-17T12:55:39.719Z,96140.00
2024-02-17T12:56:39.739Z,96141.00
2024-02-17T12:57:39.907Z,96141.00
2024-02-17T12:58:39.761Z,96143.00
2024-02-17T12:59:39.734Z,96144.00
2024-02-17T13:00:39.760Z,96143.00
2024-02-17T13:01:39.736Z,96145.00
2024-02-17T13:02:39.744Z,96144.00
2024-02-17T13:03:39.903Z,96144.00
2024-02-17T13:04:39.842Z,96142.00
2024-02-17T13:05:39.794Z,96143.00
2024-02-17T13:06:39.825Z,96143.00
2024-02-17T13:07:39.731Z,96145.00
2024-02-17T13:08:39.741Z,96144.00
2024-02-17T13:09:39.888Z,96144.00
2024-02-17T13:10:39.755Z,96142.00
2024-02-17T13:11:39.805Z,96143.00
2024-02-17T13:12:39.796Z,96142.00
2024-02-17T13:13:39.748Z,96144.00
2024-02-17T13:14:39.793Z,96142.00
2024-02-17T13:15:39.823Z,96142.00
2024-02-17T13:16:39.743Z,96143.00
2024-02-17T13:17:39.786Z,96144.00
2024-02-17T13:18:39.912Z,96142.00
2024-02-17T13:19:39.953Z,96143.00
2024-02-17T13:20:39.746Z,96145.00
2024-02-17T13:21:39.797Z,96143.00
2024-02-17T13:22:39.766Z,96146.00
2024-02-17T13:23:39.782Z,96146.00
2024-02-17T13:24:39.784Z,96148.00
2024-02-17T13:25:39.766Z,96146.00
2024-02-17T13:26:39.764Z,96147.00
2024-02-17T13:27:39.944Z,96149.00
2024-02-17T13:28:39.791Z,96149.00
2024-02-17T13:29:39.814Z,96149.00
2024-02-17T13:30:39.878Z,96150.00
2024-02-17T13:31:39.792Z,96149.00
2024-02-17T13:32:39.857Z,96150.00
2024-02-17T13:33:40.089Z,96151.00
2024-02-17T13:34:40.050Z,96152.00
2024-02-17T13:35:39.964Z,96153.00
2024-02-17T13:36:39.937Z,96155.00
2024-02-17T13:37:39.973Z,96157.00
2024-02-17T13:38:40.008Z,96156.00
2024-02-17T13:39:40.071Z,96157.00
2024-02-17T13:40:39.983Z,96157.00
2024-02-17T13:41:40.023Z,96158.00
2024-02-17T13:42:40.175Z,96159.00
2024-02-17T13:43:40.087Z,96159.00
2024-02-17T13:44:40.085Z,96160.00
2024-02-17T13:45:40.120Z,96159.00
2024-02-17T13:46:40.134Z,96161.00
2024-02-17T13:47:40.160Z,96161.00
2024-02-17T13:48:40.217Z,96161.00
2024-02-17T13:49:40.228Z,96163.00
2024-02-17T13:50:40.236Z,96166.00
2024-02-17T13:51:40.272Z,96168.00
2024-02-17T13:52:40.225Z,96170.00
2024-02-17T13:53:40.269Z,96169.00
2024-02-17T13:54:40.393Z,96170.00
2024-02-17T13:55:42.526Z,96168.00
2024-02-17T13:56:40.313Z,96172.00
2024-02-17T13:57:40.335Z,96175.00
2024-02-17T13:58:40.272Z,96174.00
2024-02-17T13:59:40.339Z,96176.00
2024-02-17T14:00:41.158Z,96179.00
2024-02-17T14:01:40.601Z,96180.00
2024-02-17T14:02:40.299Z,96181.00
2024-02-17T14:03:40.387Z,96185.00
2024-02-17T14:04:40.294Z,96186.00
2024-02-17T14:05:40.374Z,96189.00
2024-02-17T14:06:40.360Z,96190.00
2024-02-17T14:07:40.293Z,96190.00
2024-02-17T14:08:40.314Z,96195.00
2024-02-17T14:09:40.344Z,96196.00
2024-02-17T14:10:40.296Z,96197.00
2024-02-17T14:11:40.355Z,96201.00
2024-02-17T14:12:40.349Z,96201.00
2024-02-17T14:13:40.315Z,96204.00
2024-02-17T14:14:40.329Z,96206.00
2024-02-17T14:15:40.321Z,96207.00
2024-02-17T14:16:40.341Z,96209.00
2024-02-17T14:17:40.372Z,96208.00
2024-02-17T14:18:40.414Z,96209.00
2024-02-17T14:19:42.065Z,96208.00
2024-02-17T14:20:40.358Z,96209.00
2024-02-17T14:21:40.391Z,96207.00
2024-02-17T14:22:40.380Z,96208.00
2024-02-17T14:23:40.416Z,96209.00
2024-02-17T14:24:40.494Z,96210.00
2024-02-17T14:25:40.448Z,96209.00
2024-02-17T14:26:41.026Z,96211.00
2024-02-17T14:27:40.498Z,96211.00
2024-02-17T14:28:40.479Z,96214.00
2024-02-17T14:29:40.464Z,96213.00
2024-02-17T14:30:40.524Z,96217.00
2024-02-17T14:31:40.504Z,96218.00
2024-02-17T14:32:40.602Z,96218.00
2024-02-17T14:33:40.651Z,96219.00
2024-02-17T14:34:40.588Z,96219.00
2024-02-17T14:35:40.538Z,96218.00
2024-02-17T14:36:40.588Z,96220.00
2024-02-17T14:37:40.571Z,96221.00
2024-02-17T14:38:40.600Z,96222.00
2024-02-17T14:39:40.663Z,96221.00
2024-02-17T14:40:40.623Z,96222.00
2024-02-17T14:41:40.611Z,96225.00
2024-02-17T14:42:41.552Z,96222.00
2024-02-17T14:43:41.713Z,96227.00
2024-02-17T14:44:40.637Z,96228.00
2024-02-17T14:45:40.626Z,96227.00
2024-02-17T14:46:40.642Z,96228.00
2024-02-17T14:47:40.750Z,96229.00
2024-02-17T14:48:44.330Z,96229.00
2024-02-17T14:49:40.746Z,96229.00
2024-02-17T14:50:40.657Z,96229.00
2024-02-17T14:51:40.675Z,96230.00
2024-02-17T14:52:40.646Z,96229.00
2024-02-17T14:53:40.628Z,96230.00
2024-02-17T14:54:44.189Z,96228.00
2024-02-17T14:55:40.628Z,96229.00
2024-02-17T14:56:40.651Z,96229.00
2024-02-17T14:57:40.711Z,96234.00
2024-02-17T14:58:40.672Z,96232.00
2024-02-17T14:59:40.727Z,96233.00
2024-02-17T15:00:43.543Z,96236.00
2024-02-17T15:01:40.722Z,96235.00
2024-02-17T15:02:40.659Z,96238.00
2024-02-17T15:03:40.719Z,96239.00
2024-02-17T15:04:40.723Z,96240.00
2024-02-17T15:05:40.672Z,96243.00
2024-02-17T15:06:40.836Z,96243.00
2024-02-17T15:07:40.757Z,96246.00
2024-02-17T15:08:40.690Z,96248.00
2024-02-17T15:09:40.749Z,96249.00
2024-02-17T15:10:40.666Z,96249.00
2024-02-17T15:11:40.775Z,96250.00
2024-02-17T15:12:40.844Z,96250.00
2024-02-17T15:13:40.695Z,96250.00
2024-02-17T15:14:40.656Z,96248.00
2024-02-17T15:15:40.778Z,96249.00
2024-02-17T15:16:40.702Z,96249.00
2024-02-17T15:17:40.726Z,96250.00
2024-02-17T15:18:40.805Z,96249.00
2024-02-17T15:19:40.735Z,96247.00
2024-02-17T15:20:40.667Z,96248.00
2024-02-17T15:21:40.720Z,96248.00
2024-02-17T15:22:40.711Z,96248.00
2024-02-17T15:23:40.733Z,96248.00
2024-02-17T15:24:40.741Z,96248.00
2024-02-17T15:25:40.699Z,96249.00
2024-02-17T15:26:40.712Z,96248.00
2024-02-17T15:27:40.774Z,96250.00
2024-02-17T15:28:40.793Z,96251.00
2024-02-17T15:29:40.712Z,96251.00
2024-02-17T15:30:40.732Z,96252.00
2024-02-17T15:31:40.703Z,96257.00
2024-02-17T15:32:40.762Z,96257.00
2024-02-17T15:33:40.905Z,96258.00
2024-02-17T15:34:40.748Z,96259.00
2024-02-17T15:35:40.750Z,96259.00
2024-02-17T15:36:40.758Z,96258.00
2024-02-17T15:37:40.718Z,96258.00
2024-02-17T15:38:40.713Z,96260.00
2024-02-17T15:39:40.747Z,96256.00
2024-02-17T15:40:40.748Z,96256.00
2024-02-17T15:41:40.745Z,96257.00
2024-02-17T15:42:40.738Z,96259.00
2024-02-17T15:43:40.747Z,96259.00
2024-02-17T15:44:40.724Z,96258.00
2024-02-17T15:45:40.766Z,96257.00
2024-02-17T15:46:40.723Z,96259.00
2024-02-17T15:47:40.766Z,96260.00
2024-02-17T15:48:40.832Z,96260.00
2024-02-17T15:49:40.957Z,96261.00
2024-02-17T15:50:40.738Z,96262.00
2024-02-17T15:51:40.794Z,96264.00
2024-02-17T15:52:40.742Z,96262.00
2024-02-17T15:53:40.767Z,96264.00
2024-02-17T15:54:40.798Z,96268.00
2024-02-17T15:55:40.772Z,96269.00
2024-02-17T15:56:40.731Z,96267.00
2024-02-17T15:57:40.795Z,96271.00
2024-02-17T15:58:40.747Z,96273.00
2024-02-17T15:59:40.731Z,96273.00
2024-02-17T16:00:40.788Z,96271.00
2024-02-17T16:01:40.874Z,96273.00
2024-02-17T16:02:40.773Z,96274.00
2024-02-17T16:03:40.936Z,96277.00
2024-02-17T16:04:40.939Z,96276.00
2024-02-17T16:05:40.797Z,96278.00
2024-02-17T16:06:40.867Z,96278.00
2024-02-17T16:07:40.790Z,96278.00
2024-02-17T16:08:40.753Z,96279.00
2024-02-17T16:09:40.838Z,96277.00
2024-02-17T16:10:40.744Z,96279.00
2024-02-17T16:11:40.793Z,96283.00
2024-02-17T16:12:40.767Z,96280.00
2024-02-17T16:13:40.776Z,96282.00
2024-02-17T16:14:40.752Z,96284.00
2024-02-17T16:15:40.799Z,96285.00
2024-02-17T16:16:40.775Z,96289.00
2024-02-17T16:17:40.804Z,96290.00
2024-02-17T16:18:40.801Z,96293.00
2024-02-17T16:19:41.015Z,96290.00